Time;durP1;ratioP1;P1;durP2;ratioP2;P2;SDS_P1;SDS_P2;PMS_P1;PMS_P2;Temp;Humidity;BMP_temperature;BMP_pressure;BME280_temperature;BME280_humidity;BME280_pressure;Samples;Min_cycle;Max_cycle;Signal;HPM_P1;HPM_P2
2024/01/01 00:00:40;;;;;;;15.53;6.60;;;6.90;99.90;;;;;;4944311;29;20214;-58
2024/01/01 00:03:07;;;;;;;15.83;6.23;;;6.70;99.90;;;;;;4952955;28;20593;-55
2024/01/01 00:05:33;;;;;;;15.40;6.73;;;6.70;99.90;;;;;;4939748;28;20194;-58
2024/01/01 00:07:58;;;;;;;13.43;5.97;;;6.70;99.90;;;;;;4950050;29;20194;-56
2024/01/01 00:10:24;;;;;;;13.83;5.20;;;6.70;99.90;;;;;;4943655;29;20669;-58
2024/01/01 00:12:50;;;;;;;25.33;8.53;;;6.60;99.90;;;;;;4944284;28;20214;-58
2024/01/01 00:15:16;;;;;;;15.90;5.57;;;6.40;99.90;;;;;;4941570;28;20207;-56
2024/01/01 00:17:42;;;;;;;16.60;6.00;;;6.30;99.90;;;;;;4943690;29;20331;-57
2024/01/01 00:20:10;;;;;;;12.30;5.97;;;6.30;99.90;;;;;;4935675;29;20187;-54
2024/01/01 00:22:35;;;;;;;18.30;6.73;;;6.30;99.90;;;;;;4934835;29;20192;-57
2024/01/01 00:25:01;;;;;;;16.17;5.93;;;6.30;99.90;;;;;;4943278;29;20609;-56
2024/01/01 00:27:27;;;;;;;14.83;6.87;;;6.40;99.90;;;;;;4935349;29;20220;-58
2024/01/01 00:29:52;;;;;;;20.37;7.33;;;6.30;99.90;;;;;;4944379;29;20326;-58
2024/01/01 00:32:18;;;;;;;17.03;6.73;;;6.30;99.90;;;;;;4940418;28;20191;-57
2024/01/01 00:34:46;;;;;;;24.60;8.97;;;6.30;99.90;;;;;;4942952;29;20227;-58
2024/01/01 00:37:12;;;;;;;16.43;6.80;;;6.30;99.90;;;;;;4947521;28;20205;-54
2024/01/01 00:39:38;;;;;;;21.17;8.80;;;6.30;99.90;;;;;;4946643;28;20191;-59
2024/01/01 00:42:04;;;;;;;17.47;7.20;;;6.30;99.90;;;;;;4953659;28;20198;-58
2024/01/01 00:44:31;;;;;;;20.80;8.23;;;6.40;99.90;;;;;;4954023;28;20724;-57
2024/01/01 00:46:58;;;;;;;31.87;13.17;;;6.50;99.90;;;;;;4946268;28;20253;-55
2024/01/01 00:49:23;;;;;;;61.00;23.23;;;6.50;99.90;;;;;;4948360;28;20187;-56
2024/01/01 00:51:49;;;;;;;40.57;16.40;;;6.50;99.90;;;;;;4950001;29;20190;-54
2024/01/01 00:54:14;;;;;;;25.17;10.40;;;6.50;99.90;;;;;;4934890;29;20214;-57
2024/01/01 00:56:40;;;;;;;31.50;11.70;;;6.50;99.90;;;;;;4942956;29;20190;-56
2024/01/01 00:59:06;;;;;;;94.57;34.20;;;6.50;99.90;;;;;;4950169;28;20191;-56
2024/01/01 01:01:31;;;;;;;37.40;16.03;;;6.50;99.90;;;;;;4942748;29;20199;-57
2024/01/01 01:03:57;;;;;;;30.13;11.00;;;6.50;99.90;;;;;;4944595;28;20214;-54
2024/01/01 01:06:23;;;;;;;20.27;8.10;;;6.60;99.90;;;;;;4953911;28;20300;-57
2024/01/01 01:08:48;;;;;;;21.33;7.30;;;6.50;99.90;;;;;;4953538;28;20186;-57
2024/01/01 01:11:14;;;;;;;15.37;6.60;;;6.60;99.90;;;;;;4948804;28;20191;-54
2024/01/01 01:13:40;;;;;;;13.60;6.67;;;6.70;99.90;;;;;;4949849;28;20306;-55
2024/01/01 01:16:06;;;;;;;20.53;6.70;;;6.70;99.90;;;;;;4953796;28;20187;-57
2024/01/01 01:18:31;;;;;;;16.33;6.20;;;6.70;99.90;;;;;;4945873;28;20785;-57
2024/01/01 01:20:57;;;;;;;16.00;5.97;;;6.70;99.90;;;;;;4935256;28;20187;-56
2024/01/01 01:23:23;;;;;;;16.13;5.33;;;6.70;99.90;;;;;;4941452;29;20222;-56
2024/01/01 01:25:49;;;;;;;12.77;4.53;;;6.70;99.90;;;;;;4943557;29;20241;-53
2024/01/01 01:28:24;;;;;;;12.10;4.23;;;6.60;99.90;;;;;;4945495;28;20194;-53
2024/01/01 01:30:50;;;;;;;12.07;4.67;;;6.60;99.90;;;;;;4952531;28;20194;-54
2024/01/01 01:33:16;;;;;;;11.43;3.87;;;6.60;99.90;;;;;;4934409;29;20604;-56
2024/01/01 01:35:42;;;;;;;15.83;3.97;;;6.60;99.90;;;;;;4934083;29;20198;-53
2024/01/01 01:38:08;;;;;;;11.30;3.50;;;6.50;99.90;;;;;;4946163;29;20186;-56
2024/01/01 01:40:33;;;;;;;11.47;3.70;;;6.50;99.90;;;;;;4952984;28;20560;-56
2024/01/01 01:42:59;;;;;;;8.03;2.93;;;6.50;99.90;;;;;;4932368;29;20237;-53
2024/01/01 01:45:25;;;;;;;12.27;3.43;;;6.50;99.90;;;;;;4941871;29;20609;-55
2024/01/01 01:47:51;;;;;;;12.50;3.03;;;6.40;99.90;;;;;;4942120;29;20187;-55
2024/01/01 01:50:17;;;;;;;14.17;3.47;;;6.30;99.90;;;;;;4947039;29;20582;-53
2024/01/01 01:52:44;;;;;;;10.80;2.90;;;6.30;99.90;;;;;;4944185;28;20191;-54
2024/01/01 01:55:12;;;;;;;9.90;2.60;;;6.30;99.90;;;;;;4948642;28;20183;-57
2024/01/01 01:57:38;;;;;;;12.63;2.50;;;6.30;99.90;;;;;;4949718;29;20202;-53
2024/01/01 02:00:05;;;;;;;11.33;3.00;;;6.40;99.90;;;;;;4937361;29;20210;-51
2024/01/01 02:02:35;;;;;;;10.00;2.30;;;6.30;99.90;;;;;;4937273;28;20551;-56
2024/01/01 02:05:00;;;;;;;7.60;2.17;;;6.40;99.90;;;;;;4941555;29;20195;-52
2024/01/01 02:07:26;;;;;;;8.43;2.10;;;6.40;99.90;;;;;;4933571;29;20694;-53
2024/01/01 02:09:51;;;;;;;7.73;2.03;;;6.40;99.90;;;;;;4941319;29;20198;-50
2024/01/01 02:12:17;;;;;;;8.60;2.40;;;6.30;99.90;;;;;;4941043;29;20289;-52
2024/01/01 02:14:44;;;;;;;7.33;2.20;;;6.30;99.90;;;;;;4941320;29;20214;-54
2024/01/01 02:17:09;;;;;;;12.00;2.50;;;6.30;99.90;;;;;;4945526;29;20213;-58
2024/01/01 02:19:35;;;;;;;8.83;1.93;;;6.30;99.90;;;;;;4937277;28;20564;-52
2024/01/01 02:22:01;;;;;;;11.83;2.03;;;6.30;99.90;;;;;;4943941;29;20821;-52
2024/01/01 02:24:26;;;;;;;7.87;1.80;;;6.30;99.90;;;;;;4952339;28;20213;-57
2024/01/01 02:26:52;;;;;;;10.70;2.27;;;6.40;99.90;;;;;;4944456;28;20228;-52
2024/01/01 02:29:17;;;;;;;7.13;2.07;;;6.50;99.90;;;;;;4947293;28;20198;-52
2024/01/01 02:31:44;;;;;;;14.43;2.40;;;6.50;99.90;;;;;;4941058;29;20187;-52
2024/01/01 02:34:10;;;;;;;9.47;1.83;;;6.50;99.90;;;;;;4937136;29;20729;-54
2024/01/01 02:36:38;;;;;;;14.03;1.97;;;6.60;99.90;;;;;;4944574;28;20277;-53
2024/01/01 02:39:05;;;;;;;6.43;2.10;;;6.60;99.90;;;;;;4936428;29;20245;-53
2024/01/01 02:41:33;;;;;;;7.23;2.00;;;6.60;99.90;;;;;;4952315;28;20198;-52
2024/01/01 02:43:58;;;;;;;9.63;2.30;;;6.50;99.90;;;;;;4943856;28;20203;-55
2024/01/01 02:46:24;;;;;;;8.57;1.63;;;6.50;99.90;;;;;;4946316;28;20558;-54
2024/01/01 02:48:50;;;;;;;16.10;2.50;;;6.40;99.90;;;;;;4934468;29;20207;-53
2024/01/01 02:51:15;;;;;;;13.73;2.40;;;6.40;99.90;;;;;;4947450;28;20187;-53
2024/01/01 02:53:41;;;;;;;18.00;2.77;;;6.40;99.90;;;;;;4949312;28;20221;-52
2024/01/01 02:56:18;;;;;;;12.43;2.80;;;6.30;99.90;;;;;;4940901;29;20186;-55
2024/01/01 02:58:47;;;;;;;11.30;2.27;;;6.30;99.90;;;;;;4948210;28;20186;-57
2024/01/01 03:01:13;;;;;;;13.63;2.30;;;6.20;99.90;;;;;;4956174;28;20190;-52
2024/01/01 03:03:39;;;;;;;9.47;2.23;;;6.10;99.90;;;;;;4947745;28;20217;-56
2024/01/01 03:06:06;;;;;;;10.67;3.07;;;6.10;99.90;;;;;;4944703;29;20302;-53
2024/01/01 03:08:36;;;;;;;13.30;3.20;;;6.10;99.90;;;;;;4943879;29;20194;-55
2024/01/01 03:11:02;;;;;;;13.77;2.63;;;6.10;99.90;;;;;;4947809;28;20677;-55
2024/01/01 03:13:28;;;;;;;14.13;2.80;;;6.20;99.90;;;;;;4948668;28;20215;-55
2024/01/01 03:15:53;;;;;;;11.30;3.03;;;6.20;99.90;;;;;;4936758;29;20570;-53
2024/01/01 03:18:21;;;;;;;10.60;2.40;;;6.30;99.90;;;;;;4929684;29;20550;-57
2024/01/01 03:20:46;;;;;;;10.70;2.60;;;6.30;99.90;;;;;;4944491;28;20198;-52
2024/01/01 03:23:12;;;;;;;12.13;2.80;;;6.30;99.90;;;;;;4939992;29;20222;-55
2024/01/01 03:25:37;;;;;;;16.70;2.47;;;6.30;99.90;;;;;;4940003;28;20195;-57
2024/01/01 03:28:03;;;;;;;13.10;2.47;;;6.30;99.90;;;;;;4944291;29;20268;-55
2024/01/01 03:30:29;;;;;;;11.57;2.50;;;6.30;99.90;;;;;;4944297;29;20183;-58
2024/01/01 03:32:54;;;;;;;13.13;2.97;;;6.30;99.90;;;;;;4951242;28;20249;-53
2024/01/01 03:35:20;;;;;;;7.43;2.40;;;6.40;99.90;;;;;;4936442;29;20238;-52
2024/01/01 03:37:46;;;;;;;7.13;2.40;;;6.30;99.90;;;;;;4952872;29;20186;-54
2024/01/01 03:40:12;;;;;;;14.33;2.10;;;6.40;99.90;;;;;;4951500;28;20194;-57
2024/01/01 03:42:38;;;;;;;8.57;1.90;;;6.40;99.90;;;;;;4943565;29;20187;-58
2024/01/01 03:45:04;;;;;;;13.23;2.70;;;6.50;99.90;;;;;;4943987;29;20248;-53
2024/01/01 03:47:32;;;;;;;10.17;2.23;;;6.50;99.90;;;;;;4950603;29;20210;-57
2024/01/01 03:49:58;;;;;;;7.23;1.57;;;6.50;99.90;;;;;;4944701;28;20192;-55
2024/01/01 03:52:24;;;;;;;10.23;1.63;;;6.50;99.90;;;;;;4935152;29;20198;-56
2024/01/01 03:54:50;;;;;;;7.80;1.50;;;6.60;99.90;;;;;;4935833;29;20267;-53
2024/01/01 03:57:15;;;;;;;12.23;1.57;;;6.60;99.90;;;;;;4935928;29;20574;-54
2024/01/01 03:59:41;;;;;;;5.83;1.50;;;6.60;99.90;;;;;;4943985;29;20230;-54
2024/01/01 04:02:09;;;;;;;7.50;1.60;;;6.60;99.90;;;;;;4951047;28;20195;-55
2024/01/01 04:04:35;;;;;;;14.07;1.60;;;6.60;99.90;;;;;;4935233;29;20314;-57
2024/01/01 04:07:00;;;;;;;12.10;1.80;;;6.60;99.90;;;;;;4951479;28;20313;-52
2024/01/01 04:09:26;;;;;;;9.13;1.30;;;6.70;99.90;;;;;;4943645;29;20192;-54
2024/01/01 04:11:52;;;;;;;5.67;1.30;;;6.70;99.90;;;;;;4943141;29;20194;-54
2024/01/01 04:14:17;;;;;;;18.60;1.80;;;6.70;99.90;;;;;;4948473;29;20210;-55
2024/01/01 04:16:43;;;;;;;9.67;1.40;;;6.80;99.90;;;;;;4946593;28;20254;-56
2024/01/01 04:19:08;;;;;;;6.83;1.43;;;6.80;99.90;;;;;;4943168;28;20213;-55
2024/01/01 04:21:38;;;;;;;7.00;1.37;;;6.80;99.90;;;;;;4950648;29;20197;-53
2024/01/01 04:24:06;;;;;;;11.03;1.43;;;6.80;99.90;;;;;;4945652;28;20198;-57
2024/01/01 04:26:32;;;;;;;3.47;0.90;;;6.80;99.90;;;;;;4946813;28;20212;-57
2024/01/01 04:28:57;;;;;;;13.43;1.57;;;6.90;99.90;;;;;;4954503;28;20190;-52
2024/01/01 04:31:23;;;;;;;8.37;1.33;;;6.90;99.90;;;;;;4949535;28;20191;-55
2024/01/01 04:33:48;;;;;;;7.20;1.00;;;6.90;99.90;;;;;;4943436;28;20294;-55
2024/01/01 04:36:14;;;;;;;6.67;1.13;;;6.90;99.90;;;;;;4942052;28;20219;-56
2024/01/01 04:38:39;;;;;;;11.63;1.40;;;6.90;99.90;;;;;;4951114;28;20230;-57
2024/01/01 04:41:05;;;;;;;11.83;1.27;;;6.80;99.90;;;;;;4934024;29;20193;-57
2024/01/01 04:43:30;;;;;;;17.07;1.77;;;6.80;99.90;;;;;;4949139;28;20217;-57
2024/01/01 04:45:56;;;;;;;8.13;1.70;;;6.80;99.90;;;;;;4936187;28;20211;-51
2024/01/01 04:48:22;;;;;;;7.53;1.77;;;6.80;99.90;;;;;;4948720;29;20211;-52
2024/01/01 04:50:48;;;;;;;10.37;1.30;;;6.80;99.90;;;;;;4946028;28;20190;-50
2024/01/01 04:53:14;;;;;;;10.37;1.33;;;6.80;99.90;;;;;;4947156;28;20229;-55
2024/01/01 04:55:39;;;;;;;8.97;1.30;;;6.80;99.90;;;;;;4938939;28;20659;-49
2024/01/01 04:58:05;;;;;;;6.57;1.43;;;6.80;99.90;;;;;;4946879;29;20639;-53
2024/01/01 05:00:30;;;;;;;7.93;1.20;;;6.80;99.90;;;;;;4954296;28;20590;-54
2024/01/01 05:02:56;;;;;;;7.13;1.53;;;6.70;99.90;;;;;;4944383;28;20633;-49
2024/01/01 05:05:22;;;;;;;8.70;1.87;;;6.60;99.90;;;;;;4940323;29;20194;-51
2024/01/01 05:07:50;;;;;;;7.07;1.17;;;6.60;99.90;;;;;;4944591;28;20211;-54
2024/01/01 05:10:16;;;;;;;6.67;1.50;;;6.50;99.90;;;;;;4939226;29;20614;-49
2024/01/01 05:12:43;;;;;;;10.27;1.57;;;6.40;99.90;;;;;;4944864;28;20225;-53
2024/01/01 05:15:11;;;;;;;9.03;1.17;;;6.40;99.90;;;;;;4945686;28;20298;-49
2024/01/01 05:17:37;;;;;;;9.23;1.07;;;6.40;99.90;;;;;;4945015;28;20325;-53
2024/01/01 05:20:03;;;;;;;7.50;1.50;;;6.40;99.90;;;;;;4945388;28;20269;-54
2024/01/01 05:22:30;;;;;;;9.87;1.50;;;6.40;99.90;;;;;;4938455;28;20213;-50
2024/01/01 05:24:55;;;;;;;9.53;1.50;;;6.40;99.90;;;;;;4944226;29;20234;-52
2024/01/01 05:27:21;;;;;;;16.33;1.97;;;6.50;99.90;;;;;;4953356;28;20222;-54
2024/01/01 05:29:47;;;;;;;11.10;1.33;;;6.50;99.90;;;;;;4937313;28;20575;-56
2024/01/01 05:32:12;;;;;;;12.23;1.60;;;6.40;99.90;;;;;;4940890;28;20183;-52
2024/01/01 05:34:40;;;;;;;12.37;1.17;;;6.40;99.90;;;;;;4949448;29;20324;-51
2024/01/01 05:37:05;;;;;;;13.27;2.40;;;6.50;99.90;;;;;;4942102;28;20190;-53
2024/01/01 05:39:31;;;;;;;11.50;1.70;;;6.40;99.90;;;;;;4940635;29;20194;-53
2024/01/01 05:41:56;;;;;;;12.13;1.73;;;6.50;99.90;;;;;;4936600;28;20206;-53
2024/01/01 05:44:22;;;;;;;7.97;1.53;;;6.50;99.90;;;;;;4945097;28;20218;-49
2024/01/01 05:46:49;;;;;;;7.10;1.43;;;6.60;99.90;;;;;;4945011;28;20301;-52
2024/01/01 05:49:15;;;;;;;5.40;1.00;;;6.50;99.90;;;;;;4953205;28;20266;-54
2024/01/01 05:51:40;;;;;;;13.33;1.43;;;6.50;99.90;;;;;;4952738;28;20273;-52
2024/01/01 05:54:06;;;;;;;11.07;1.40;;;6.60;99.90;;;;;;4933733;29;20218;-49
2024/01/01 05:56:32;;;;;;;15.87;1.67;;;6.60;99.90;;;;;;4941782;29;20232;-55
2024/01/01 05:58:57;;;;;;;12.63;1.83;;;6.60;99.90;;;;;;4943710;29;20191;-54
2024/01/01 06:01:23;;;;;;;10.70;1.67;;;6.70;99.90;;;;;;4951429;28;20197;-49
2024/01/01 06:03:48;;;;;;;10.27;1.77;;;6.70;99.90;;;;;;4944231;28;20278;-51
2024/01/01 06:06:15;;;;;;;18.63;1.90;;;6.70;99.90;;;;;;4953155;28;20249;-54
2024/01/01 06:08:40;;;;;;;12.10;2.03;;;6.70;99.90;;;;;;4944777;28;20189;-50
2024/01/01 06:11:06;;;;;;;9.17;1.30;;;6.70;99.90;;;;;;4933478;29;20191;-50
2024/01/01 06:13:32;;;;;;;23.03;2.53;;;6.60;99.90;;;;;;4931583;29;20214;-52
2024/01/01 06:15:58;;;;;;;11.57;1.50;;;6.60;99.90;;;;;;4943477;29;20273;-52
2024/01/01 06:18:25;;;;;;;7.83;1.20;;;6.60;99.90;;;;;;4944850;28;20190;-49
2024/01/01 06:20:50;;;;;;;11.57;1.63;;;6.60;99.90;;;;;;4943437;28;20187;-49
2024/01/01 06:23:17;;;;;;;12.80;1.47;;;6.50;99.90;;;;;;4932630;29;20346;-52
2024/01/01 06:25:42;;;;;;;15.80;1.53;;;6.60;99.90;;;;;;4949079;29;20182;-52
2024/01/01 06:28:08;;;;;;;5.80;1.10;;;6.50;99.90;;;;;;4940852;28;20210;-55
2024/01/01 06:30:34;;;;;;;9.20;1.23;;;6.60;99.90;;;;;;4940158;29;20603;-51
2024/01/01 06:33:01;;;;;;;10.63;1.77;;;6.60;99.90;;;;;;4933231;28;20745;-52
2024/01/01 06:35:30;;;;;;;13.00;1.50;;;6.60;99.90;;;;;;4940907;29;20271;-49
2024/01/01 06:37:58;;;;;;;7.87;1.50;;;6.60;99.90;;;;;;4941071;29;20197;-49
2024/01/01 06:40:24;;;;;;;17.13;1.67;;;6.70;99.90;;;;;;4933315;29;20567;-53
2024/01/01 06:42:49;;;;;;;12.30;1.73;;;6.70;99.90;;;;;;4933342;29;20763;-50
2024/01/01 06:45:15;;;;;;;19.07;1.97;;;6.60;99.90;;;;;;4952493;28;20174;-49
2024/01/01 06:47:41;;;;;;;12.57;1.53;;;6.60;99.90;;;;;;4944468;28;20214;-50
2024/01/01 06:50:07;;;;;;;6.37;1.33;;;6.70;99.90;;;;;;4952335;29;20179;-49
2024/01/01 06:52:32;;;;;;;17.07;1.60;;;6.60;99.90;;;;;;4936993;28;20226;-52
2024/01/01 06:54:58;;;;;;;10.73;1.90;;;6.60;99.90;;;;;;4935207;29;20183;-53
2024/01/01 06:57:24;;;;;;;19.20;2.93;;;6.60;99.90;;;;;;4944238;28;20186;-49
2024/01/01 06:59:50;;;;;;;8.33;1.50;;;6.50;99.90;;;;;;4935241;28;20187;-49
2024/01/01 07:02:16;;;;;;;9.10;1.63;;;6.40;99.90;;;;;;4936571;29;20190;-49
2024/01/01 07:04:41;;;;;;;8.83;1.40;;;6.50;99.90;;;;;;4944177;28;20207;-49
2024/01/01 07:07:07;;;;;;;15.33;2.37;;;6.40;99.90;;;;;;4940662;28;20219;-53
2024/01/01 07:09:32;;;;;;;8.93;2.13;;;6.50;99.90;;;;;;4947474;29;20241;-55
2024/01/01 07:11:58;;;;;;;9.43;1.87;;;6.50;99.90;;;;;;4943296;28;20186;-52
2024/01/01 07:14:25;;;;;;;12.47;1.70;;;6.50;99.90;;;;;;4952114;28;20337;-52
2024/01/01 07:16:56;;;;;;;13.07;2.17;;;6.50;99.90;;;;;;4942739;28;20201;-49
2024/01/01 07:19:21;;;;;;;15.10;2.47;;;6.40;99.90;;;;;;4938150;29;20198;-51
2024/01/01 07:21:48;;;;;;;14.70;2.30;;;6.50;99.90;;;;;;4943304;28;20195;-51
2024/01/01 07:24:14;;;;;;;13.17;1.87;;;6.40;99.90;;;;;;4947616;28;20227;-49
2024/01/01 07:26:39;;;;;;;15.03;2.00;;;6.30;99.90;;;;;;4940470;29;20304;-49
2024/01/01 07:29:05;;;;;;;15.17;2.53;;;6.30;99.90;;;;;;4948869;28;20180;-52
2024/01/01 07:31:31;;;;;;;20.07;2.23;;;6.30;99.90;;;;;;4939361;29;20185;-55
2024/01/01 07:33:56;;;;;;;6.70;1.53;;;6.20;99.90;;;;;;4941256;28;20226;-52
2024/01/01 07:36:22;;;;;;;12.80;1.93;;;6.20;99.90;;;;;;4940674;29;20199;-50
2024/01/01 07:38:47;;;;;;;14.33;1.70;;;6.20;99.90;;;;;;4947583;28;20194;-50
2024/01/01 07:41:13;;;;;;;9.40;1.70;;;6.20;99.90;;;;;;4937023;29;20201;-50
2024/01/01 07:43:39;;;;;;;7.87;1.50;;;6.30;99.90;;;;;;4946679;28;20287;-50
2024/01/01 07:46:09;;;;;;;16.70;1.80;;;6.20;99.90;;;;;;4943305;29;20571;-52
2024/01/01 07:48:35;;;;;;;10.23;1.67;;;6.30;99.90;;;;;;4942515;29;20193;-51
2024/01/01 07:51:00;;;;;;;13.93;1.77;;;6.20;99.90;;;;;;4946626;28;20270;-50
2024/01/01 07:53:26;;;;;;;9.30;1.77;;;6.30;99.90;;;;;;4945703;28;20250;-51
2024/01/01 07:55:51;;;;;;;11.20;1.80;;;6.30;99.90;;;;;;4937625;28;20546;-54
2024/01/01 07:58:17;;;;;;;12.47;1.47;;;6.30;99.90;;;;;;4940030;29;20198;-50
2024/01/01 08:00:42;;;;;;;12.97;1.83;;;6.40;99.90;;;;;;4938674;28;20630;-55
2024/01/01 08:03:08;;;;;;;15.37;2.60;;;6.40;99.90;;;;;;4950408;28;20311;-51
2024/01/01 08:05:34;;;;;;;11.03;1.80;;;6.40;99.90;;;;;;4935534;29;20218;-54
2024/01/01 08:08:00;;;;;;;12.63;1.43;;;6.40;99.90;;;;;;4953230;28;20634;-51
2024/01/01 08:10:25;;;;;;;16.60;1.67;;;6.40;99.90;;;;;;4948717;28;20215;-54
2024/01/01 08:12:51;;;;;;;10.63;2.10;;;6.40;99.90;;;;;;4943349;29;20358;-52
2024/01/01 08:15:16;;;;;;;15.63;1.80;;;6.50;99.90;;;;;;4942049;28;20211;-53
2024/01/01 08:17:42;;;;;;;12.60;2.00;;;6.50;99.90;;;;;;4942849;29;20175;-51
2024/01/01 08:20:08;;;;;;;9.07;1.80;;;6.60;99.90;;;;;;4935078;28;20230;-50
2024/01/01 08:22:33;;;;;;;13.43;1.77;;;6.60;99.90;;;;;;4940688;28;20182;-54
2024/01/01 08:24:59;;;;;;;9.03;1.57;;;6.60;99.90;;;;;;4945920;28;20198;-50
2024/01/01 08:27:25;;;;;;;14.63;2.53;;;6.70;99.90;;;;;;4954099;28;20245;-53
2024/01/01 08:29:50;;;;;;;22.77;2.53;;;6.70;99.90;;;;;;4944875;28;20185;-51
2024/01/01 08:32:16;;;;;;;14.60;1.83;;;6.70;99.90;;;;;;4941095;29;20679;-49
2024/01/01 08:34:41;;;;;;;15.73;2.20;;;6.80;99.90;;;;;;4934677;29;20231;-50
2024/01/01 08:37:07;;;;;;;9.60;1.80;;;6.80;99.90;;;;;;4942465;29;20269;-53
2024/01/01 08:39:32;;;;;;;9.67;1.87;;;6.80;99.90;;;;;;4948955;29;20198;-52
2024/01/01 08:41:58;;;;;;;13.93;1.77;;;6.80;99.90;;;;;;4943213;28;20270;-51
2024/01/01 08:44:23;;;;;;;19.50;2.13;;;6.90;99.90;;;;;;4942597;29;20214;-52
2024/01/01 08:46:49;;;;;;;8.33;1.33;;;7.00;99.90;;;;;;4950894;29;20738;-50
2024/01/01 08:49:14;;;;;;;14.23;2.37;;;7.10;99.90;;;;;;4941681;28;20257;-49
2024/01/01 08:51:40;;;;;;;10.67;1.73;;;7.10;99.90;;;;;;4942329;28;20308;-52
2024/01/01 08:54:07;;;;;;;16.17;2.60;;;7.10;99.90;;;;;;4933926;29;20652;-49
2024/01/01 08:56:32;;;;;;;16.10;3.83;;;7.10;99.90;;;;;;4940969;29;20552;-53
2024/01/01 08:58:58;;;;;;;13.10;2.47;;;7.10;99.90;;;;;;4943639;28;20187;-52
2024/01/01 09:01:24;;;;;;;10.67;2.10;;;7.00;99.90;;;;;;4934021;29;20740;-51
2024/01/01 09:03:49;;;;;;;14.47;1.53;;;7.00;99.90;;;;;;4949300;29;20237;-50
2024/01/01 09:06:15;;;;;;;11.67;1.53;;;7.00;99.90;;;;;;4934018;29;20203;-53
2024/01/01 09:08:43;;;;;;;9.40;1.60;;;7.10;99.90;;;;;;4949534;29;20265;-56
2024/01/01 09:11:08;;;;;;;12.40;2.00;;;6.90;99.90;;;;;;4937164;28;20466;-50
2024/01/01 09:13:34;;;;;;;9.47;1.60;;;7.00;99.90;;;;;;4937939;28;20635;-50
2024/01/01 09:16:01;;;;;;;13.77;1.60;;;7.00;99.90;;;;;;4936245;29;20226;-49
2024/01/01 09:18:56;;;;;;;7.20;1.70;;;7.10;99.90;;;;;;4947186;23;20239;-54
2024/01/01 09:21:24;;;;;;;16.37;3.13;;;7.20;99.90;;;;;;4905732;29;20188;-57
2024/01/01 09:23:50;;;;;;;9.20;1.50;;;7.30;99.90;;;;;;4913405;29;20215;-53
2024/01/01 09:26:16;;;;;;;5.60;1.17;;;7.20;99.90;;;;;;4903573;29;20208;-54
2024/01/01 09:28:41;;;;;;;8.00;1.50;;;6.90;99.90;;;;;;4903300;29;20199;-57
2024/01/01 09:31:07;;;;;;;12.63;1.37;;;6.90;99.90;;;;;;4911382;29;20219;-56
2024/01/01 09:33:33;;;;;;;11.30;1.47;;;6.80;99.90;;;;;;4906711;29;20191;-54
2024/01/01 09:35:58;;;;;;;9.70;1.60;;;6.80;99.90;;;;;;4912913;29;20222;-53
2024/01/01 09:38:24;;;;;;;12.00;1.57;;;6.90;99.90;;;;;;4908712;29;20211;-57
2024/01/01 09:40:52;;;;;;;3.93;1.40;;;7.00;99.90;;;;;;4906695;29;20218;-57
2024/01/01 09:43:18;;;;;;;6.27;1.30;;;6.90;99.90;;;;;;4913943;29;20202;-56
2024/01/01 09:45:46;;;;;;;4.77;0.90;;;6.90;99.90;;;;;;4914510;29;20274;-56
2024/01/01 09:48:12;;;;;;;8.27;1.40;;;7.00;99.90;;;;;;4906973;29;20655;-57
2024/01/01 09:50:39;;;;;;;10.10;1.30;;;7.00;99.90;;;;;;4914653;29;20306;-57
2024/01/01 09:53:04;;;;;;;5.17;1.07;;;7.00;99.90;;;;;;4912063;29;20275;-58
2024/01/01 09:55:30;;;;;;;11.67;1.20;;;7.00;99.90;;;;;;4914700;29;20194;-58
2024/01/01 09:57:56;;;;;;;10.27;1.47;;;6.90;99.90;;;;;;4913953;29;20266;-56
2024/01/01 10:00:22;;;;;;;6.43;1.10;;;7.00;99.90;;;;;;4914397;29;20215;-59
2024/01/01 10:02:48;;;;;;;8.40;2.17;;;6.90;99.90;;;;;;4912857;29;20216;-55
2024/01/01 10:05:15;;;;;;;5.33;0.90;;;6.90;99.90;;;;;;4914506;29;20568;-55
2024/01/01 10:07:41;;;;;;;4.87;1.00;;;6.80;99.90;;;;;;4906356;29;20215;-55
2024/01/01 10:10:08;;;;;;;6.47;1.40;;;6.80;99.90;;;;;;4903388;29;20200;-59
2024/01/01 10:12:33;;;;;;;6.07;1.27;;;6.70;99.90;;;;;;4909081;29;20183;-58
2024/01/01 10:15:00;;;;;;;8.70;1.90;;;6.80;99.90;;;;;;4913928;29;20180;-58
2024/01/01 10:17:26;;;;;;;35.97;6.83;;;6.90;99.90;;;;;;4914518;29;20859;-65
2024/01/01 10:20:01;;;;;;;8.63;1.60;;;7.00;99.90;;;;;;4897800;29;20266;-58
2024/01/01 10:22:31;;;;;;;2.93;0.83;;;7.00;99.90;;;;;;4908471;29;20199;-54
2024/01/01 10:25:14;;;;;;;6.57;1.00;;;7.10;99.90;;;;;;4905047;29;20666;-54
2024/01/01 10:27:43;;;;;;;9.27;1.73;;;7.10;99.90;;;;;;4910570;29;20289;-57
2024/01/01 10:30:09;;;;;;;5.67;0.90;;;7.20;99.90;;;;;;4915027;29;20183;-56
2024/01/01 10:32:35;;;;;;;7.73;1.10;;;7.20;99.90;;;;;;4906355;29;20191;-57
2024/01/01 10:35:06;;;;;;;7.20;1.80;;;7.10;99.90;;;;;;4913910;29;20670;-54
2024/01/01 10:37:33;;;;;;;6.97;1.03;;;7.00;99.90;;;;;;4913917;29;20222;-57
2024/01/01 10:40:05;;;;;;;8.30;1.17;;;7.00;99.90;;;;;;4905954;29;20214;-56
2024/01/01 10:42:34;;;;;;;3.90;0.80;;;7.10;99.90;;;;;;4913310;29;20675;-56
2024/01/01 10:45:05;;;;;;;3.97;1.23;;;7.00;99.90;;;;;;4913623;29;20184;-57
2024/01/01 10:47:31;;;;;;;5.83;1.03;;;7.00;99.90;;;;;;4913593;29;20270;-57
2024/01/01 10:50:17;;;;;;;4.53;1.10;;;6.80;99.90;;;;;;4905666;29;20263;-55
2024/01/01 10:53:04;;;;;;;9.40;3.13;;;6.90;99.90;;;;;;4912733;29;20655;-58
2024/01/01 10:55:54;;;;;;;6.33;1.87;;;6.90;99.90;;;;;;4913586;29;20172;-53
2024/01/01 10:58:25;;;;;;;5.87;1.50;;;6.90;99.90;;;;;;4913721;29;20580;-53
2024/01/01 11:01:07;;;;;;;10.57;2.27;;;6.90;99.90;;;;;;4913481;29;20176;-51
2024/01/01 11:03:34;;;;;;;10.20;1.40;;;6.80;99.90;;;;;;4912926;29;20176;-56
2024/01/01 11:06:20;;;;;;;8.80;1.30;;;6.90;99.90;;;;;;4905610;29;20199;-51
2024/01/01 11:08:46;;;;;;;6.67;1.43;;;6.80;99.90;;;;;;4890825;29;20247;-61
2024/01/01 11:11:27;;;;;;;6.50;1.67;;;6.80;99.90;;;;;;4913389;29;20208;-52
2024/01/01 11:13:54;;;;;;;6.63;0.73;;;6.70;99.90;;;;;;4904311;29;20188;-54
2024/01/01 11:16:21;;;;;;;4.87;1.13;;;6.80;99.90;;;;;;4910660;29;20184;-51
2024/01/01 11:18:47;;;;;;;5.57;1.43;;;6.90;99.90;;;;;;4926584;29;20251;-50
2024/01/01 11:21:32;;;;;;;5.47;1.20;;;6.80;99.90;;;;;;4912984;29;20202;-52
2024/01/01 11:24:01;;;;;;;8.60;1.30;;;6.80;99.90;;;;;;4900868;29;20207;-52
2024/01/01 11:26:27;;;;;;;4.97;1.00;;;6.80;99.90;;;;;;4916974;29;20691;-54
2024/01/01 11:28:57;;;;;;;6.93;0.90;;;6.80;99.90;;;;;;4915830;29;20694;-59
2024/01/01 11:31:27;;;;;;;6.93;1.07;;;6.90;99.90;;;;;;4910981;29;20183;-56
2024/01/01 11:34:06;;;;;;;6.17;1.37;;;6.90;99.90;;;;;;4916040;29;20216;-53
2024/01/01 11:36:32;;;;;;;6.70;1.00;;;6.90;99.90;;;;;;4916688;29;20179;-54
2024/01/01 11:38:58;;;;;;;3.47;1.20;;;6.90;99.90;;;;;;4916817;29;20231;-53
2024/01/01 11:41:25;;;;;;;3.27;1.00;;;6.90;99.90;;;;;;4916698;29;20276;-55
2024/01/01 11:43:51;;;;;;;4.33;1.20;;;7.00;99.90;;;;;;4916032;29;20180;-51
2024/01/01 11:46:27;;;;;;;4.27;1.17;;;7.10;99.90;;;;;;4908951;29;20262;-50
2024/01/01 11:49:00;;;;;;;8.13;1.40;;;7.10;99.90;;;;;;4916433;29;20554;-53
2024/01/01 11:51:30;;;;;;;4.77;1.00;;;7.20;99.90;;;;;;4916750;29;20187;-54
2024/01/01 11:54:11;;;;;;;4.57;1.03;;;7.30;99.90;;;;;;4916422;29;20218;-52
2024/01/01 11:56:37;;;;;;;2.90;0.80;;;7.40;99.90;;;;;;4916737;29;20698;-54
2024/01/01 11:59:06;;;;;;;8.37;0.93;;;7.40;99.90;;;;;;4916209;29;20212;-54
2024/01/01 12:01:32;;;;;;;5.10;1.00;;;7.40;99.90;;;;;;4908560;29;20290;-55
2024/01/01 12:04:01;;;;;;;4.07;1.03;;;7.40;99.90;;;;;;4916037;29;20251;-54
2024/01/01 12:06:28;;;;;;;5.47;1.27;;;7.40;99.90;;;;;;4916169;29;20308;-52
2024/01/01 12:09:11;;;;;;;2.80;0.77;;;7.40;99.90;;;;;;4908876;29;20227;-57
2024/01/01 12:11:39;;;;;;;7.27;1.13;;;7.40;99.90;;;;;;4916092;29;20654;-56
2024/01/01 12:14:05;;;;;;;4.93;0.90;;;7.50;99.90;;;;;;4915715;29;20537;-55
2024/01/01 12:16:32;;;;;;;4.30;1.00;;;7.40;99.90;;;;;;4903117;29;20189;-53
2024/01/01 12:18:59;;;;;;;7.70;1.40;;;7.40;99.90;;;;;;4914301;29;20262;-54
2024/01/01 12:21:35;;;;;;;5.70;1.00;;;7.50;99.90;;;;;;4911061;29;20196;-56
2024/01/01 12:24:03;;;;;;;5.37;1.43;;;7.50;99.90;;;;;;4914275;29;20183;-52
2024/01/01 12:26:29;;;;;;;3.50;0.97;;;7.50;99.90;;;;;;4907720;29;20243;-54
2024/01/01 12:29:09;;;;;;;6.60;1.20;;;7.40;99.90;;;;;;4916184;29;20322;-53
2024/01/01 12:31:36;;;;;;;6.93;1.20;;;7.30;99.90;;;;;;4908525;29;20187;-55
2024/01/01 12:34:01;;;;;;;6.23;1.10;;;7.30;99.90;;;;;;4915670;29;20184;-50
2024/01/01 12:36:27;;;;;;;6.43;1.20;;;7.30;99.90;;;;;;4915845;29;20198;-51
2024/01/01 12:38:52;;;;;;;6.20;1.10;;;7.40;99.90;;;;;;4907738;29;20303;-57
2024/01/01 12:41:19;;;;;;;3.80;0.63;;;7.40;99.90;;;;;;4915758;29;20195;-53
2024/01/01 12:43:45;;;;;;;9.77;1.30;;;7.40;99.90;;;;;;4915203;29;20196;-51
2024/01/01 12:46:13;;;;;;;3.97;0.80;;;7.40;99.90;;;;;;4915426;29;20574;-54
2024/01/01 12:48:43;;;;;;;6.33;1.10;;;7.30;99.90;;;;;;4915638;29;20272;-54